Terminal Aerodrome Forecast
Issued by NWS

Home | Current Version | Previous Version | Text Only | Print | Product List | Glossary On
Versions: 1 2 3 4 5 6 7 8 9 10 11 12 13
000
FTAK31 PAJN 290520
TAFAWG
TAF
PAWG 290520Z 2906/3006 VRB04KT P6SM SCT080 BKN200
     FM290900 VRB04KT P6SM SCT005 BKN200
     FM291300 13005KT P6SM BKN015 BKN090
     FM291900 32005KT P6SM BKN040 BKN150
      AMD LTD TO CLD VIS AND WIND 2906/2915=

USA.gov is the U.S. government's official web portal to all federal, state and local government web resources and services.